Reiffton, Pennsylvania
Current Conditions -  °F | °C
As of 9:03 PM on Sunday 25 Jan 2015 (Local Time) from KRDG Reporting Station
Haze Haze  
Wind Chill: 31°   Ceiling: 2500
Heat Index: 35°   Visibility: 6mi
Dew Point: 29°   Wind: 5mph
Humidity: 78%   Direction: 60°ENE
Pressure: 29.92"   Gusts: NA
Location:  40.3351°N, 75.8521°W
Report Text: KRDG 260203Z 06004KT 6SM BR BKN025 OVC032 02/M02 A2992 RMK AO2 T00171017
Loading
Personal Weather Stations






























Interactive Weather Map New forecast layout! Learn more

10-Day Weather Forecast

Advertisements
Track Severe Weather on mobile